Kitchings Mill, South Carolina
Current Conditions -  °F | °C
As of 5:15 AM on Sunday 23 Nov 2014 (Local Time) from KAIK Reporting Station
Moderate Rain Moderate Rain  
Wind Chill: 50°   Ceiling: 400
Heat Index: 50°   Visibility: 2.5mi
Dew Point: 50°   Wind: 3mph
Humidity: 100%   Direction: 40°NE
Pressure: 30.2"   Gusts: NA
Location:  33.5901°N, 81.3327°W
Report Text: KAIK 231015Z AUTO 04003KT 2 1/2SM RA SCT001 OVC004 10/10 A3020 RMK AO2 PNO
Loading
Personal Weather Stations






























Interactive Weather Map New forecast layout! Learn more

10-Day Weather Forecast

Advertisements
Track Severe Weather on mobile